Time;durP1;ratioP1;P1;durP2;ratioP2;P2;SDS_P1;SDS_P2;PMS_P1;PMS_P2;Temp;Humidity;BMP_temperature;BMP_pressure;BME280_temperature;BME280_humidity;BME280_pressure;Samples;Min_cycle;Max_cycle;Signal;HPM_P1;HPM_P2
2022/11/05 00:10:55;;;;;;;3.97;2.38;;;8.40;99.90;;;7.78;100.00;96931.31;4981765;28;20070;-46
2022/11/05 00:19:05;;;;;;;4.35;2.72;;;8.40;99.90;;;7.74;100.00;96929.72;4982991;28;20053;-48
2022/11/05 00:27:01;;;;;;;3.42;2.55;;;8.40;99.90;;;7.69;100.00;96934.25;4983702;28;20414;-47
2022/11/05 00:29:26;;;;;;;3.55;2.10;;;8.30;99.90;;;7.69;100.00;96944.75;4986401;28;20026;-48
2022/11/05 00:31:52;;;;;;;3.15;2.17;;;8.30;99.90;;;7.69;100.00;96951.78;4982894;28;20026;-45
2022/11/05 00:34:17;;;;;;;4.90;2.50;;;8.30;99.90;;;7.70;100.00;96953.47;4985334;28;20041;-45
2022/11/05 00:36:43;;;;;;;2.85;1.95;;;8.30;99.90;;;7.70;100.00;96950.84;4981462;28;20383;-49
2022/11/05 00:39:09;;;;;;;3.72;2.38;;;8.30;99.90;;;7.74;100.00;96952.50;4984129;28;20030;-47
2022/11/05 00:41:35;;;;;;;3.25;2.20;;;8.30;99.90;;;7.72;100.00;96960.41;4984547;28;20441;-46
2022/11/05 00:46:44;;;;;;;3.28;2.10;;;8.30;99.90;;;7.72;100.00;96962.19;4982148;28;20164;-47
2022/11/05 00:49:28;;;;;;;3.05;2.35;;;8.40;99.90;;;7.70;100.00;96962.22;4984623;28;20042;-45
2022/11/05 00:52:54;;;;;;;5.35;2.40;;;8.40;99.90;;;7.70;100.00;96966.59;4982271;28;20119;-48
2022/11/05 00:54:42;;;;;;;2.65;2.25;;;8.30;99.90;;;7.51;100.00;96943.59;4984005;28;20081;-46
2022/11/05 00:57:08;;;;;;;2.92;2.10;;;8.30;99.90;;;7.63;100.00;96973.84;4983741;28;20451;-46
2022/11/05 00:59:34;;;;;;;5.97;1.90;;;8.30;99.90;;;7.59;100.00;96973.06;4982950;28;20534;-45
2022/11/05 01:01:59;;;;;;;2.90;1.90;;;8.20;99.90;;;7.63;100.00;96979.09;4979697;28;20293;-47
2022/11/05 01:04:25;;;;;;;2.95;1.90;;;8.20;99.90;;;7.63;100.00;96973.84;4985632;28;20305;-47
2022/11/05 01:06:51;;;;;;;2.88;1.63;;;8.30;99.90;;;7.63;100.00;96981.72;4983160;28;20022;-47
2022/11/05 01:09:16;;;;;;;11.68;2.15;;;8.20;99.90;;;7.64;100.00;96983.41;4984693;28;20042;-47
2022/11/05 01:11:44;;;;;;;2.85;1.77;;;8.30;99.90;;;7.64;100.00;96986.03;4981650;28;20536;-46
2022/11/05 01:14:14;;;;;;;2.47;2.08;;;8.30;99.90;;;7.63;100.00;96985.19;5010485;23;20042;-67
2022/11/05 01:16:41;;;;;;;3.05;1.63;;;8.20;99.90;;;7.63;100.00;96993.06;5011128;28;20026;-66
2022/11/05 01:19:09;;;;;;;3.75;1.70;;;8.20;99.90;;;7.64;100.00;96997.41;5013892;28;20033;-67
2022/11/05 01:21:35;;;;;;;2.95;1.90;;;8.20;99.90;;;7.65;100.00;96995.63;5009949;28;20080;-66
2022/11/05 01:24:02;;;;;;;4.75;1.77;;;8.20;99.90;;;7.67;100.00;97000.84;5006730;28;20057;-67
2022/11/05 01:26:27;;;;;;;4.20;1.90;;;8.30;99.90;;;7.70;100.00;97000.72;4989774;28;20031;-67
2022/11/05 01:28:55;;;;;;;2.70;1.70;;;8.30;99.90;;;7.71;100.00;97005.94;4992795;28;20036;-67
2022/11/05 01:31:22;;;;;;;3.35;1.60;;;8.30;99.90;;;7.68;100.00;96986.78;4992455;28;20036;-66
2022/11/05 01:33:48;;;;;;;2.33;1.48;;;8.30;99.90;;;7.72;100.00;97001.56;4989455;28;20045;-66
2022/11/05 01:36:14;;;;;;;2.83;1.52;;;8.30;99.90;;;7.58;100.00;96975.75;4988518;28;20030;-66
2022/11/05 01:38:40;;;;;;;2.25;1.42;;;8.30;99.90;;;7.70;100.00;97008.59;4990674;28;20493;-66
2022/11/05 01:41:06;;;;;;;1.42;1.20;;;8.30;99.90;;;7.71;100.00;97000.69;4993108;28;20026;-66
2022/11/05 01:43:50;;;;;;;3.08;1.75;;;8.30;99.90;;;7.72;100.00;97009.44;4989857;28;20978;-66
2022/11/05 01:46:39;;;;;;;1.95;1.60;;;8.40;99.90;;;7.72;100.00;97010.28;4989379;28;20036;-67
2022/11/05 01:49:19;;;;;;;1.90;1.40;;;8.30;99.90;;;7.74;100.00;97012.88;4993147;28;20501;-66
2022/11/05 01:51:45;;;;;;;2.83;1.58;;;8.40;99.90;;;7.75;100.00;97007.56;4989511;28;20061;-66
2022/11/05 01:54:15;;;;;;;2.00;1.77;;;8.30;99.90;;;7.75;100.00;97004.94;4985939;28;20137;-66
2022/11/05 01:56:55;;;;;;;1.40;1.30;;;8.40;99.90;;;7.82;100.00;97016.09;4987875;28;20036;-66
2022/11/05 01:59:30;;;;;;;2.65;1.70;;;8.40;99.90;;;7.80;100.00;97010.88;4989175;28;20033;-66
2022/11/05 02:01:56;;;;;;;2.72;1.55;;;8.40;99.90;;;7.82;100.00;97014.34;5001313;28;20038;-66
2022/11/05 02:04:31;;;;;;;2.95;1.38;;;8.40;99.90;;;7.84;100.00;97017.78;4986918;28;20026;-66
2022/11/05 02:06:57;;;;;;;1.67;1.40;;;8.40;99.90;;;7.85;100.00;97013.38;4990164;28;20029;-66
2022/11/05 02:09:33;;;;;;;1.25;1.10;;;8.40;99.90;;;7.86;100.00;97015.09;5002559;28;20102;-66
2022/11/05 02:11:59;;;;;;;1.75;1.40;;;8.50;99.90;;;7.88;100.00;97021.16;4989026;28;20034;-67
2022/11/05 02:14:25;;;;;;;1.63;1.30;;;8.50;99.90;;;7.85;100.00;97021.25;4988291;28;20045;-66
2022/11/05 02:17:10;;;;;;;2.50;1.27;;;8.50;99.90;;;7.84;100.00;97019.50;4986308;28;20531;-67
2022/11/05 02:20:16;;;;;;;2.08;1.25;;;8.50;99.90;;;7.82;100.00;97026.59;4986045;28;20038;-67
2022/11/05 02:22:45;;;;;;;1.52;1.30;;;8.50;99.90;;;7.82;100.00;97021.34;4983262;28;21694;-66
2022/11/05 02:25:58;;;;;;;1.70;1.20;;;8.40;99.90;;;7.79;100.00;97024.94;4988201;28;20107;-67
2022/11/05 02:28:51;;;;;;;;;;;8.40;99.90;;;7.77;100.00;97034.63;4970244;28;20039;-67
2022/11/05 02:31:39;;;;;;;2.25;1.63;;;8.40;99.90;;;7.73;100.00;97032.13;4988193;28;19964;-66
2022/11/05 02:34:48;;;;;;;2.00;1.60;;;8.30;99.90;;;7.70;100.00;97026.97;4984044;28;20371;-66
2022/11/05 02:37:40;;;;;;;2.03;1.60;;;8.30;99.90;;;7.67;100.00;97035.81;4987685;28;20026;-66
2022/11/05 02:40:24;;;;;;;2.45;1.48;;;8.30;99.90;;;7.64;100.00;97034.16;4989326;28;20088;-66
2022/11/05 02:43:32;;;;;;;2.65;1.80;;;8.30;99.90;;;7.58;100.00;97038.72;4987759;28;20106;-65
2022/11/05 02:50:13;;;;;;;2.47;1.13;;;8.20;99.90;;;7.66;100.00;97034.06;4981591;28;20108;-67
2022/11/05 02:53:01;;;;;;;1.40;1.00;;;8.30;99.90;;;7.71;100.00;97037.44;4984630;28;20044;-67
2022/11/05 02:55:39;;;;;;;1.63;1.10;;;8.30;99.90;;;7.73;100.00;97035.59;4984619;28;20021;-66
2022/11/05 02:58:05;;;;;;;5.80;1.50;;;8.30;99.90;;;7.74;100.00;97036.47;4989479;28;20026;-66
2022/11/05 03:00:47;;;;;;;1.30;1.10;;;8.40;99.90;;;7.76;100.00;97039.91;4990365;28;20033;-65
2022/11/05 03:03:17;;;;;;;;;;;8.40;99.90;;;7.70;100.00;97034.84;4987849;28;20093;-66
2022/11/05 03:05:55;;;;;;;1.92;1.40;;;8.40;99.90;;;7.75;100.00;97039.06;4988369;28;20012;-65
2022/11/05 03:08:54;;;;;;;3.30;1.25;;;8.40;99.90;;;7.77;100.00;97039.88;4984059;28;20038;-65
2022/11/05 03:11:23;;;;;;;1.92;1.35;;;8.40;99.90;;;7.78;100.00;97038.09;4986168;28;20038;-65
2022/11/05 03:14:11;;;;;;;3.83;1.52;;;8.40;99.90;;;7.78;100.00;97043.34;4988099;28;20120;-65
2022/11/05 03:16:43;;;;;;;4.15;1.67;;;8.40;99.90;;;7.76;100.00;97053.91;4990568;28;20053;-65
2022/11/05 03:19:26;;;;;;;3.35;1.10;;;8.40;99.90;;;7.79;100.00;97052.94;4989046;28;20072;-66
2022/11/05 03:22:05;;;;;;;1.70;1.33;;;8.40;99.90;;;7.79;100.00;97053.81;5004974;28;20029;-65
2022/11/05 03:24:40;;;;;;;1.17;1.08;;;8.40;99.90;;;7.81;100.00;97057.22;4985128;28;20431;-65
2022/11/05 03:27:18;;;;;;;3.00;1.52;;;8.40;99.90;;;7.82;100.00;97065.97;4986668;28;20034;-65
2022/11/05 03:29:50;;;;;;;1.85;1.40;;;8.40;99.90;;;7.76;100.00;97064.38;4987959;28;20414;-66
2022/11/05 03:32:18;;;;;;;4.00;1.77;;;8.40;99.90;;;7.76;100.00;97058.28;5004523;28;20058;-66
2022/11/05 03:34:55;;;;;;;2.45;1.20;;;8.40;99.90;;;7.77;100.00;97065.25;4985982;28;20430;-66
2022/11/05 03:37:22;;;;;;;2.08;1.23;;;8.40;99.90;;;7.76;100.00;97071.41;4988505;28;20029;-66
2022/11/05 03:39:53;;;;;;;2.70;1.48;;;8.40;99.90;;;7.73;100.00;97069.72;4986633;28;20395;-66
2022/11/05 03:42:24;;;;;;;4.10;1.48;;;8.40;99.90;;;7.73;100.00;97072.34;4987720;28;20022;-66
2022/11/05 03:44:55;;;;;;;1.97;1.37;;;8.30;99.90;;;7.70;100.00;97072.47;4986888;28;20038;-66
2022/11/05 03:47:27;;;;;;;1.85;1.27;;;8.30;99.90;;;7.68;100.00;97069.03;4986759;28;20621;-66
2022/11/05 03:50:08;;;;;;;1.55;1.40;;;8.30;99.90;;;7.69;100.00;97068.13;4987294;28;20030;-66
2022/11/05 03:52:46;;;;;;;3.22;1.80;;;8.40;99.90;;;7.73;100.00;97084.63;4984816;28;20156;-66
2022/11/05 03:55:12;;;;;;;4.00;1.35;;;8.40;99.90;;;7.72;100.00;97086.41;4980819;28;20027;-66
2022/11/05 03:57:42;;;;;;;3.00;1.92;;;8.30;99.90;;;7.69;100.00;97094.38;4986263;28;20473;-67
2022/11/05 04:00:09;;;;;;;2.72;1.90;;;8.30;99.90;;;7.69;100.00;97098.75;4989965;28;20026;-66
2022/11/05 04:02:36;;;;;;;3.20;1.88;;;8.30;99.90;;;7.65;100.00;97101.47;5004024;28;20033;-65
2022/11/05 04:05:02;;;;;;;2.63;1.60;;;8.30;99.90;;;7.65;100.00;97096.22;4989152;28;20038;-65
2022/11/05 04:18:24;;;;;;;4.45;2.47;;;8.20;99.90;;;7.54;100.00;97110.59;4989169;28;20037;-65
2022/11/05 04:26:22;;;;;;;2.80;2.17;;;8.20;99.90;;;7.52;100.00;97115.00;4991526;28;20036;-65
2022/11/05 04:31:37;;;;;;;4.18;2.53;;;8.20;99.90;;;7.50;100.00;97128.19;4988033;28;20037;-65
2022/11/05 04:34:03;;;;;;;6.60;3.05;;;8.20;99.90;;;7.46;100.00;97123.91;4983139;28;20065;-65
2022/11/05 04:36:29;;;;;;;11.32;3.70;;;8.10;99.90;;;7.52;100.00;97133.34;4989844;28;20033;-65
2022/11/05 04:38:55;;;;;;;4.50;2.72;;;8.10;99.90;;;7.48;100.00;97126.50;4990349;28;20033;-65
2022/11/05 04:41:20;;;;;;;3.47;2.35;;;8.10;99.90;;;7.53;100.00;97129.84;4992663;28;20037;-65
2022/11/05 04:43:46;;;;;;;3.97;2.83;;;8.20;99.90;;;7.53;100.00;97124.59;4988436;28;20018;-65
2022/11/05 04:46:12;;;;;;;4.93;3.10;;;8.20;99.90;;;7.53;100.00;97128.06;4994312;28;20023;-65
2022/11/05 04:48:38;;;;;;;3.97;3.17;;;8.20;99.90;;;7.53;100.00;97140.34;4992321;28;20057;-65
2022/11/05 04:51:04;;;;;;;5.70;2.50;;;8.20;99.90;;;7.55;100.00;97142.00;4992539;28;20042;-65
2022/11/05 04:53:30;;;;;;;7.80;2.80;;;8.20;99.90;;;7.57;100.00;97144.59;4992569;28;20033;-64
2022/11/05 04:56:20;;;;;;;2.65;2.33;;;8.20;99.90;;;7.56;100.00;97148.13;4992432;28;20038;-64
2022/11/05 04:58:46;;;;;;;3.08;2.42;;;8.20;99.90;;;7.58;100.00;97148.94;4994795;28;20337;-65
2022/11/05 05:01:17;;;;;;;3.85;2.50;;;8.20;99.90;;;7.59;100.00;97148.03;4990659;28;20033;-64
2022/11/05 05:03:42;;;;;;;4.03;2.80;;;8.20;99.90;;;7.53;100.00;97137.72;4989355;28;20034;-64
2022/11/05 05:06:09;;;;;;;4.20;2.60;;;8.20;99.90;;;7.56;100.00;97158.63;4991268;28;20105;-64
2022/11/05 05:08:35;;;;;;;4.68;2.17;;;8.20;99.90;;;7.56;100.00;97159.47;4995780;28;20030;-65
2022/11/05 05:11:06;;;;;;;4.22;2.33;;;8.20;99.90;;;7.58;100.00;97160.28;4989681;28;20022;-64
2022/11/05 05:13:33;;;;;;;4.78;2.10;;;8.20;99.90;;;7.55;100.00;97154.28;4992903;28;20032;-64
2022/11/05 05:15:58;;;;;;;3.35;2.20;;;8.20;99.90;;;7.59;100.00;97161.16;4992052;28;20053;-64
2022/11/05 05:18:27;;;;;;;3.72;2.75;;;8.20;99.90;;;7.57;100.00;97158.59;4992600;28;20022;-65
2022/11/05 05:23:42;;;;;;;5.03;2.97;;;8.20;99.90;;;7.51;100.00;97169.25;4991753;28;20529;-64
2022/11/05 05:26:08;;;;;;;4.93;3.63;;;8.20;99.90;;;7.51;100.00;97174.50;4991190;28;20042;-64
2022/11/05 05:28:34;;;;;;;4.75;3.83;;;8.20;99.90;;;7.51;100.00;97168.41;4994610;28;20049;-65
2022/11/05 05:31:00;;;;;;;6.03;3.70;;;8.20;99.90;;;7.48;100.00;97173.72;4991040;28;20474;-65
2022/11/05 05:33:27;;;;;;;8.65;6.65;;;8.20;99.90;;;7.45;100.00;97166.81;4993893;28;20049;-65
2022/11/05 05:35:56;;;;;;;12.77;5.05;;;8.10;99.90;;;7.44;100.00;97173.78;4987863;28;20038;-64
2022/11/05 05:38:21;;;;;;;7.80;5.18;;;8.10;99.90;;;7.47;100.00;97178.13;4992464;28;20475;-65
2022/11/05 05:40:49;;;;;;;8.00;5.82;;;8.10;99.90;;;7.50;100.00;97183.28;4987897;28;20053;-64
2022/11/05 05:43:15;;;;;;;8.80;6.82;;;8.10;99.90;;;7.52;100.00;97180.59;4992920;28;20049;-64
2022/11/05 05:45:41;;;;;;;6.47;5.00;;;8.20;99.90;;;7.49;100.00;97186.81;4988896;28;20477;-64
2022/11/05 05:48:07;;;;;;;12.60;5.30;;;8.20;99.90;;;7.51;100.00;97192.00;4993184;28;20367;-64
2022/11/05 05:50:33;;;;;;;8.90;6.68;;;8.10;99.90;;;7.51;100.00;97190.25;4991617;28;20470;-64
2022/11/05 05:52:58;;;;;;;8.60;6.88;;;8.20;99.90;;;7.53;100.00;97195.44;4991403;28;20363;-64
2022/11/05 05:55:24;;;;;;;12.98;8.30;;;8.20;99.90;;;7.53;100.00;97198.06;4988739;28;20478;-64
2022/11/05 05:57:50;;;;;;;14.23;10.80;;;8.20;99.90;;;7.52;100.00;97194.59;4991097;28;20050;-64
2022/11/05 06:00:16;;;;;;;14.60;9.80;;;8.20;99.90;;;7.52;100.00;97205.09;4991585;28;20032;-64
2022/11/05 06:02:41;;;;;;;15.23;8.73;;;8.20;99.90;;;7.53;100.00;97200.69;4992547;28;20033;-64
2022/11/05 06:05:07;;;;;;;16.70;11.55;;;8.20;99.90;;;7.53;100.00;97208.56;4989621;28;20442;-64
2022/11/05 06:07:33;;;;;;;13.68;10.70;;;8.20;99.90;;;7.53;100.00;97219.06;4993008;28;20048;-64
2022/11/05 06:09:59;;;;;;;12.73;10.43;;;8.20;99.90;;;7.53;100.00;97219.06;4988083;28;20489;-64
2022/11/05 06:12:24;;;;;;;18.80;11.35;;;8.20;99.90;;;7.51;100.00;97213.00;4990707;28;20026;-64
2022/11/05 06:14:50;;;;;;;16.55;11.23;;;8.20;99.90;;;7.51;100.00;97221.72;4991645;28;20026;-64
2022/11/05 06:17:16;;;;;;;20.85;13.98;;;8.20;99.90;;;7.52;100.00;97225.19;4990861;28;20018;-64
2022/11/05 06:19:41;;;;;;;17.50;12.98;;;8.20;99.90;;;7.53;100.00;97224.31;4992637;28;20698;-64
2022/11/05 06:22:07;;;;;;;18.65;13.10;;;8.20;99.90;;;7.52;100.00;97228.72;4990005;28;20026;-64
2022/11/05 06:24:33;;;;;;;22.20;14.73;;;8.20;99.90;;;7.51;100.00;97234.00;4990133;28;20030;-64
2022/11/05 06:26:58;;;;;;;19.45;14.35;;;8.20;99.90;;;7.48;100.00;97232.28;4990777;28;20225;-64
2022/11/05 06:29:24;;;;;;;22.65;16.23;;;8.10;99.90;;;7.47;100.00;97241.09;4994396;28;20026;-64
2022/11/05 06:31:50;;;;;;;23.38;16.08;;;8.10;99.90;;;7.46;100.00;97241.97;4988095;28;20464;-64
2022/11/05 06:34:15;;;;;;;20.55;14.02;;;8.10;99.90;;;7.47;100.00;97253.34;4993217;28;20030;-64
2022/11/05 06:36:41;;;;;;;23.02;15.18;;;8.10;99.90;;;7.40;100.00;97256.13;4991087;28;20402;-64
2022/11/05 06:39:11;;;;;;;28.08;17.50;;;8.10;99.90;;;7.33;100.00;97258.97;4994442;28;20037;-64
2022/11/05 06:41:36;;;;;;;26.42;17.65;;;8.00;99.90;;;7.22;100.00;97254.84;4991658;28;20034;-64
2022/11/05 06:44:02;;;;;;;29.23;17.73;;;7.90;99.90;;;7.19;100.00;97257.53;4991820;28;20065;-64
2022/11/05 06:46:28;;;;;;;23.52;15.65;;;7.90;99.90;;;7.24;100.00;97266.16;4990233;28;20249;-64
2022/11/05 06:48:54;;;;;;;26.88;17.23;;;7.90;99.90;;;7.28;100.00;97264.31;4987017;28;20041;-64
2022/11/05 06:51:19;;;;;;;30.67;18.02;;;8.00;99.90;;;7.29;100.00;97271.31;4989636;28;20128;-64
2022/11/05 06:53:45;;;;;;;28.20;17.73;;;7.90;99.90;;;7.30;100.00;97267.75;4989464;28;20029;-64
2022/11/05 06:56:11;;;;;;;24.35;15.75;;;7.90;99.90;;;7.33;100.00;97279.94;4991891;28;20053;-64
2022/11/05 06:58:37;;;;;;;29.60;17.50;;;8.00;99.90;;;7.35;100.00;97286.00;4990840;28;20043;-64
2022/11/05 07:01:08;;;;;;;25.58;16.60;;;8.00;99.90;;;7.39;100.00;97290.28;4991910;28;20026;-64
2022/11/05 07:03:35;;;;;;;27.63;16.60;;;8.00;99.90;;;7.42;100.00;97295.44;4989940;28;20026;-64
2022/11/05 07:06:03;;;;;;;25.55;16.48;;;8.10;99.90;;;7.45;100.00;97301.47;4987775;28;20466;-64
2022/11/05 07:08:36;;;;;;;28.35;17.35;;;8.10;99.90;;;7.49;100.00;97293.53;4982828;28;20019;-64
2022/11/05 07:11:03;;;;;;;34.65;18.98;;;8.10;99.90;;;7.51;100.00;97307.47;4989928;28;20034;-64
2022/11/05 07:13:29;;;;;;;29.60;18.65;;;8.20;99.90;;;7.54;100.00;97310.03;4990716;28;20247;-63
2022/11/05 07:15:55;;;;;;;32.83;20.13;;;8.20;99.90;;;7.56;100.00;97311.69;5027316;23;20049;-48
2022/11/05 07:18:21;;;;;;;30.77;18.70;;;8.20;99.90;;;7.58;100.00;97319.53;5016438;28;20438;-46
2022/11/05 07:20:48;;;;;;;30.88;19.23;;;8.20;99.90;;;7.57;100.00;97320.41;5015093;28;20034;-45
2022/11/05 07:23:15;;;;;;;31.88;18.35;;;8.20;99.90;;;7.62;100.00;97336.91;5018683;28;20047;-45
2022/11/05 07:25:42;;;;;;;31.83;19.15;;;8.30;99.90;;;7.69;100.00;97332.38;5012847;28;20025;-49
2022/11/05 07:28:08;;;;;;;38.78;20.27;;;8.30;99.90;;;7.72;100.00;97335.78;5016920;28;20025;-45
2022/11/05 07:30:35;;;;;;;32.70;20.35;;;8.40;99.90;;;7.75;100.00;97335.69;5014743;28;20033;-46
2022/11/05 07:33:02;;;;;;;35.55;19.60;;;8.40;99.90;;;7.78;100.00;97337.38;5017026;28;20033;-46
2022/11/05 07:35:27;;;;;;;29.45;18.30;;;8.40;99.90;;;7.79;100.00;97345.22;5014799;28;20645;-47
2022/11/05 07:37:54;;;;;;;30.65;18.70;;;8.40;99.90;;;7.81;100.00;97345.19;5015275;28;20196;-46
2022/11/05 07:40:23;;;;;;;32.55;18.55;;;8.50;99.90;;;7.78;100.00;97343.47;5015964;28;20041;-45
2022/11/05 07:42:52;;;;;;;26.92;17.88;;;8.50;99.90;;;7.80;100.00;97343.44;5014830;28;20397;-46
2022/11/05 07:45:18;;;;;;;28.73;19.17;;;8.50;99.90;;;7.84;100.00;97351.19;5012520;28;20033;-45
2022/11/05 07:47:52;;;;;;;34.30;18.17;;;8.50;99.90;;;7.83;100.00;97354.72;5013448;28;20021;-46
2022/11/05 07:50:20;;;;;;;28.77;17.08;;;8.50;99.90;;;7.86;100.00;97360.78;5011911;28;20038;-46
2022/11/05 07:52:47;;;;;;;26.27;16.92;;;8.50;99.90;;;7.76;100.00;97345.28;5007846;28;20021;-48
2022/11/05 07:55:13;;;;;;;27.15;17.77;;;8.50;99.90;;;7.82;100.00;97367.88;5008157;28;20034;-45
2022/11/05 07:57:47;;;;;;;27.00;16.33;;;8.50;99.90;;;7.83;100.00;97374.88;5011253;28;20587;-45
2022/11/05 08:00:17;;;;;;;27.92;17.90;;;8.50;99.90;;;7.82;100.00;97378.38;5013045;28;20033;-46
2022/11/05 08:02:42;;;;;;;28.20;17.60;;;8.50;99.90;;;7.78;100.00;97380.22;5012109;28;20064;-48
2022/11/05 08:05:09;;;;;;;25.33;15.32;;;8.40;99.90;;;7.73;100.00;97387.34;5012915;28;20401;-46
2022/11/05 08:07:34;;;;;;;22.05;15.85;;;8.40;99.90;;;7.63;100.00;97380.66;5016082;28;20032;-46
2022/11/05 08:10:03;;;;;;;20.75;15.60;;;8.30;99.90;;;7.60;100.00;97389.44;5013758;28;20029;-44
2022/11/05 08:12:31;;;;;;;18.40;12.82;;;8.30;99.90;;;7.58;100.00;97393.00;5016241;28;20018;-46
2022/11/05 08:14:56;;;;;;;15.15;10.25;;;8.30;99.90;;;7.45;100.00;97395.09;5013230;28;20033;-46
2022/11/05 08:17:22;;;;;;;20.77;12.25;;;8.20;99.90;;;7.47;100.00;97395.06;5017303;28;20033;-49
2022/11/05 08:19:48;;;;;;;24.60;10.95;;;8.10;99.90;;;7.43;100.00;97402.13;5020126;28;20032;-49
2022/11/05 08:22:13;;;;;;;20.73;11.77;;;8.10;99.90;;;7.40;100.00;97399.59;5020287;28;20229;-45
2022/11/05 08:24:39;;;;;;;15.43;11.00;;;8.10;99.90;;;7.43;100.00;97400.38;5018083;28;20026;-45
2022/11/05 08:27:05;;;;;;;14.27;9.05;;;8.10;99.90;;;7.41;100.00;97396.94;5016811;28;20087;-48
2022/11/05 08:29:30;;;;;;;15.73;8.43;;;8.10;99.90;;;7.39;100.00;97400.47;5016803;28;20029;-45
2022/11/05 08:31:56;;;;;;;13.45;8.70;;;8.10;99.90;;;7.36;100.00;97414.53;5017337;28;20044;-49
2022/11/05 08:34:22;;;;;;;11.55;7.15;;;8.10;99.90;;;7.25;100.00;97417.41;5020435;28;20030;-47
2022/11/05 08:36:47;;;;;;;12.70;7.78;;;8.00;99.90;;;7.26;100.00;97413.88;5014369;28;20033;-49
2022/11/05 08:39:13;;;;;;;11.90;6.93;;;8.00;99.90;;;7.24;100.00;97420.91;5018909;28;20473;-47
2022/11/05 08:41:41;;;;;;;11.00;6.95;;;8.00;99.90;;;7.26;100.00;97421.75;5019505;28;20029;-47
2022/11/05 08:44:07;;;;;;;8.23;5.80;;;8.00;99.90;;;7.17;100.00;97414.09;5020279;28;20073;-46
2022/11/05 08:46:36;;;;;;;10.25;6.70;;;7.90;99.90;;;7.20;100.00;97418.41;5020658;28;20082;-47
2022/11/05 08:49:03;;;;;;;9.48;6.15;;;7.90;99.90;;;7.21;100.00;97431.50;5009806;28;20456;-47
2022/11/05 08:51:28;;;;;;;9.23;5.90;;;7.90;99.90;;;7.22;100.00;97427.13;5022043;28;20086;-49
2022/11/05 08:53:54;;;;;;;11.88;5.85;;;7.90;99.90;;;7.18;100.00;97425.47;5015960;28;20514;-49
2022/11/05 08:56:20;;;;;;;9.00;6.07;;;7.90;99.90;;;7.21;100.00;97422.75;5019029;28;20025;-45
2022/11/05 08:58:46;;;;;;;8.35;5.38;;;8.00;99.90;;;7.28;100.00;97432.19;5017469;28;20037;-47
2022/11/05 09:01:11;;;;;;;10.18;6.05;;;8.00;99.90;;;7.29;100.00;97430.47;5013347;28;20033;-49
2022/11/05 09:03:37;;;;;;;8.77;6.00;;;8.00;99.90;;;7.29;100.00;97431.31;5016849;28;20022;-46
2022/11/05 09:06:03;;;;;;;7.97;5.70;;;8.00;99.90;;;7.33;100.00;97442.59;5014409;28;20087;-47
2022/11/05 09:08:29;;;;;;;8.68;5.95;;;8.00;99.90;;;7.40;100.00;97444.19;5017794;28;20030;-49
2022/11/05 09:10:54;;;;;;;9.38;5.63;;;8.10;99.90;;;7.47;100.00;97445.75;5015922;28;20529;-48
2022/11/05 09:13:20;;;;;;;8.80;5.50;;;8.20;99.90;;;7.53;100.00;97432.47;5019686;28;20030;-48
2022/11/05 09:15:48;;;;;;;9.45;5.93;;;8.20;99.90;;;7.64;100.00;97447.97;5016220;28;20021;-49
2022/11/05 09:18:14;;;;;;;10.18;5.90;;;8.40;99.90;;;7.69;100.00;97448.72;5017239;28;20037;-49
2022/11/05 09:20:41;;;;;;;10.02;6.40;;;8.40;99.90;;;7.65;100.00;97452.34;5018105;28;20302;-49
2022/11/05 09:23:09;;;;;;;10.02;5.35;;;8.40;99.90;;;7.65;100.00;97455.81;5015939;28;20109;-50
2022/11/05 09:25:34;;;;;;;8.82;6.00;;;8.40;99.90;;;7.58;100.00;97448.13;5019244;28;20034;-46
2022/11/05 09:28:11;;;;;;;8.98;5.93;;;8.40;99.90;;;7.52;100.00;97459.66;5018512;28;20429;-48
2022/11/05 09:30:46;;;;;;;7.50;5.50;;;8.30;99.90;;;7.43;100.00;97460.72;5015251;28;20037;-50
2022/11/05 09:33:13;;;;;;;7.95;5.78;;;8.20;99.90;;;7.43;100.00;97465.97;5020837;28;20033;-47
2022/11/05 09:35:40;;;;;;;14.48;6.70;;;8.20;99.90;;;7.32;100.00;97465.38;5017318;28;20501;-51
2022/11/05 09:38:06;;;;;;;8.63;6.15;;;8.10;99.90;;;7.37;100.00;97471.34;5019583;28;20112;-46
2022/11/05 09:40:53;;;;;;;12.50;7.50;;;8.10;99.90;;;7.37;100.00;97466.09;5014952;28;20065;-46
2022/11/05 09:43:25;;;;;;;12.45;7.22;;;8.20;99.90;;;7.51;100.00;97470.19;5013407;28;20312;-50
2022/11/05 09:45:55;;;;;;;13.20;7.75;;;8.20;99.90;;;7.64;100.00;97469.84;5028387;28;20576;-49
2022/11/05 09:48:27;;;;;;;12.73;7.78;;;8.40;99.90;;;7.73;100.00;97463.50;4994534;28;20048;-47
2022/11/05 09:50:53;;;;;;;12.68;8.35;;;8.50;99.90;;;7.78;100.00;97471.28;5018862;28;20598;-49
2022/11/05 09:53:21;;;;;;;16.58;8.65;;;8.50;99.90;;;7.72;100.00;97464.41;5015706;28;20040;-49
2022/11/05 09:55:54;;;;;;;14.88;9.30;;;8.50;99.90;;;7.67;100.00;97474.16;5016825;28;20596;-47
2022/11/05 09:58:29;;;;;;;17.75;9.65;;;8.40;99.90;;;7.68;100.00;97477.63;5029897;28;20033;-49
2022/11/05 10:00:57;;;;;;;13.27;8.35;;;8.40;99.90;;;7.69;100.00;97480.22;5011545;28;20517;-49
2022/11/05 10:03:25;;;;;;;15.60;9.48;;;8.40;99.90;;;7.72;100.00;97482.78;5009792;28;20377;-49
2022/11/05 10:05:53;;;;;;;20.20;9.57;;;8.40;99.90;;;7.76;100.00;97489.69;5012228;28;20663;-49
2022/11/05 10:08:31;;;;;;;17.77;10.15;;;8.40;99.90;;;7.77;100.00;97495.78;5015353;28;20056;-49
2022/11/05 10:11:05;;;;;;;13.77;9.82;;;8.40;99.90;;;7.76;100.00;97502.81;5010306;28;20045;-48
2022/11/05 10:13:42;;;;;;;14.73;10.05;;;8.50;99.90;;;7.70;100.00;97497.72;5014737;28;20053;-49
2022/11/05 10:16:34;;;;;;;22.27;11.20;;;8.50;99.90;;;7.75;100.00;97506.34;5017864;28;20033;-47
2022/11/05 10:19:13;;;;;;;14.65;10.55;;;8.50;99.90;;;7.79;100.00;97505.38;5016225;28;20056;-46
2022/11/05 10:21:39;;;;;;;19.48;11.05;;;8.50;99.90;;;7.84;100.00;97515.72;5016000;28;20040;-49
2022/11/05 10:24:23;;;;;;;17.27;9.50;;;8.60;99.90;;;7.84;100.00;97518.38;5016453;28;20420;-48
2022/11/05 10:26:52;;;;;;;12.40;8.80;;;8.60;99.90;;;7.74;100.00;97517.72;5014266;28;20032;-50
2022/11/05 10:29:32;;;;;;;17.00;9.93;;;8.50;99.90;;;7.68;100.00;97520.50;5012806;28;20064;-49
2022/11/05 10:32:04;;;;;;;12.75;8.93;;;8.50;99.90;;;7.61;100.00;97521.56;5010610;28;20045;-48
2022/11/05 10:34:33;;;;;;;14.68;8.82;;;8.40;99.90;;;7.61;100.00;97521.56;5030925;28;20205;-50
2022/11/05 10:36:59;;;;;;;20.20;9.45;;;8.40;99.90;;;7.73;100.00;97528.25;5029885;28;20030;-50
2022/11/05 10:39:26;;;;;;;14.27;9.30;;;8.40;99.90;;;7.77;100.00;97527.28;5012248;28;20033;-49
2022/11/05 10:42:16;;;;;;;15.95;11.18;;;8.50;99.90;;;7.92;100.00;97531.31;5016103;28;20068;-46
2022/11/05 10:45:17;;;;;;;19.20;10.15;;;8.60;99.90;;;7.99;100.00;97520.63;5039883;28;20036;-50
2022/11/05 10:48:26;;;;;;;15.07;10.25;;;8.70;99.90;;;8.08;100.00;97524.78;5015912;28;20044;-47
2022/11/05 10:50:53;;;;;;;16.48;10.10;;;8.80;99.90;;;8.23;100.00;97526.16;5014718;28;20029;-49
2022/11/05 10:53:28;;;;;;;18.27;10.75;;;8.90;99.90;;;8.30;100.00;97526.88;5015698;28;20083;-48
2022/11/05 10:55:53;;;;;;;15.93;9.68;;;9.00;99.90;;;8.22;100.00;97498.19;5038838;28;20125;-47
2022/11/05 10:58:33;;;;;;;15.30;10.05;;;9.10;99.90;;;8.60;100.00;97520.84;5016492;28;20025;-48
2022/11/05 11:01:04;;;;;;;13.48;9.38;;;9.30;99.90;;;8.78;100.00;97529.13;5014664;28;20026;-48
2022/11/05 11:03:46;;;;;;;14.57;9.65;;;9.50;99.90;;;9.02;100.00;97524.09;5012982;28;20220;-49
2022/11/05 11:06:27;;;;;;;15.23;10.00;;;9.70;99.90;;;9.24;100.00;97529.56;5012646;28;20036;-50
2022/11/05 11:09:02;;;;;;;14.75;9.50;;;9.90;99.90;;;9.24;100.00;97527.81;5009928;28;20029;-49
2022/11/05 11:11:37;;;;;;;10.15;7.65;;;10.00;99.90;;;9.29;100.00;97536.41;5012370;28;20030;-47
2022/11/05 11:14:25;;;;;;;12.93;7.85;;;10.00;99.90;;;9.30;100.00;97534.69;5015226;28;20505;-47
2022/11/05 11:16:55;;;;;;;9.98;7.05;;;10.00;99.90;;;8.98;100.00;97511.00;5015090;28;20042;-49
2022/11/05 11:19:27;;;;;;;11.55;7.30;;;10.00;99.90;;;9.12;100.00;97536.06;5012873;28;20063;-51
2022/11/05 11:22:04;;;;;;;11.37;7.43;;;9.90;99.90;;;9.21;100.00;97540.22;5014407;28;20120;-50
2022/11/05 11:24:38;;;;;;;13.05;7.57;;;10.00;99.90;;;9.20;100.00;97541.09;5017096;28;20087;-48